Los Angeles Regional Airport Weather

KWHP 170250Z 10005KT 10SM SKC 25/18 A3005

KAPV 191256Z AUTO 05004KT 10SM FEW075 SCT090 BKN110 18/18 A2996 RMK AO2 SLP144 T01830178 $

KAVX 170351Z AUTO 16006KT 10SM CLR 21/19 A3007 RMK AO2 SLP159 T02110189 $

KBFL 170354Z 02005KT 10SM CLR 33/12 A2995 RMK AO2 SLP135 T03330117

KBUR 170353Z AUTO 16006KT 10SM CLR 23/20 A3002 RMK AO2 SLP154 T02330200 $

KCMA 170355Z AUTO 24004KT 9SM CLR 22/17 A3001 RMK AO2 SLP170 T02220172

KCNO 170353Z 28007KT 10SM SCT120 25/19 A3003 RMK AO2 SLP161 LAST T02500189

KEMT 170245Z 19009G15KT 10SM CLR 26/19 A3000

KFUL 170353Z AUTO VRB04KT 10SM CLR 23/19 A3001 RMK AO2 SLP162 T02330189

KHHR 170414Z 23006KT 10SM FEW014 BKN019 23/20 A3003 RMK AO2 T02330200

KL35 170415Z AUTO 00000KT 10SM CLR 14/12 A3039 RMK AO2

KLAX 170353Z 28007KT 10SM BKN011 23/20 A3002 RMK AO2 SLP163 T02280200

KLGB 170353Z 19007KT 10SM CLR 23/20 A3002 RMK AO2 SLP164 T02280200

KONT 170353Z 26014KT 10SM FEW160 FEW250 24/18 A3001 RMK AO2 SLP148 T02440183 $

KOXR 170351Z AUTO 27005KT 9SM CLR 20/18 A3001 RMK AO2 SLP161 T02000183

KPMD 170353Z 23014KT 10SM CLR 29/14 A3007 RMK AO2 SLP150 T02940139

KPOC 170347Z 23007KT 10SM CLR 23/19 A3006

KRAL 170353Z 27009KT 10SM CLR 24/18 A3002 RMK AO2 SLP150 T02440183

KSMO 170351Z AUTO 25005KT 10SM OVC010 24/20 A3002 RMK AO2 SLP164 T02390200

KSNA 170353Z 19009KT 8SM FEW015 23/18 A3001 RMK AO2 SLP162 T02280183

KTOA 170247Z 27013KT 10SM SKC 23/19 A3000

KTRM 170352Z AUTO 12005KT 10SM CLR 34/22 A2985 RMK AO2 LTG DSNT SW SLP111 T03440217

KVNY 170351Z 09008KT 10SM CLR 24/18 A3002 RMK AO2 SLP155 T02440183

KWJF 170356Z 23014KT 10SM CLR 28/14 A3006 RMK AO2 SLP155 T02780144



How to read METARs